createdAt,value
2018-10-03T00:09:04.935Z,87.1
2018-10-03T00:19:04.924Z,87.5
2018-10-03T00:29:04.000Z,87.7
2018-10-03T00:39:03.823Z,87.6
2018-10-03T00:49:04.199Z,87.3
2018-10-03T00:59:03.897Z,87.2
2018-10-03T01:09:03.247Z,86.9
2018-10-03T01:19:02.908Z,87
2018-10-03T01:29:02.333Z,87.4
2018-10-03T01:39:01.969Z,87.6
2018-10-03T01:49:01.533Z,87.5
2018-10-03T01:59:00.953Z,87.5
2018-10-03T02:09:00.318Z,87.3
2018-10-03T02:18:59.857Z,87.3
2018-10-03T02:28:59.501Z,87.2
2018-10-03T02:38:58.937Z,87.1
2018-10-03T02:48:59.142Z,87
2018-10-03T02:58:58.472Z,86.9
2018-10-03T03:08:58.521Z,87
2018-10-03T03:18:57.571Z,86.9
2018-10-03T03:28:57.067Z,86.8
2018-10-03T03:38:56.495Z,86.6
2018-10-03T03:48:55.937Z,86.6
2018-10-03T03:58:55.652Z,86.6
2018-10-03T04:08:55.426Z,86.4
2018-10-03T04:18:54.503Z,86.6
2018-10-03T04:28:54.391Z,87
2018-10-03T04:38:53.811Z,87.3
2018-10-03T04:48:53.331Z,87.4
2018-10-03T04:58:52.360Z,87.4
2018-10-03T05:08:52.039Z,87.7
2018-10-03T05:18:51.345Z,87.7
2018-10-03T05:28:50.853Z,87.8
2018-10-03T05:38:50.135Z,87.7
2018-10-03T05:48:50.048Z,87.7
2018-10-03T05:58:49.343Z,87.3
2018-10-03T06:08:48.827Z,87
2018-10-03T06:18:48.449Z,86.6
2018-10-03T06:28:48.059Z,85.9
2018-10-03T06:38:47.352Z,85
2018-10-03T06:48:47.830Z,82.8
2018-10-03T06:58:47.316Z,82.2
2018-10-03T07:18:55.323Z,77.7
2018-10-03T07:49:11.255Z,73.6
2018-10-03T07:59:10.999Z,73.1
2018-10-03T08:09:10.416Z,73.1
2018-10-03T08:19:11.125Z,71.9
2018-10-03T08:29:10.956Z,71.2
2018-10-03T08:39:13.161Z,70.2
2018-10-03T08:49:13.052Z,70.4
2018-10-03T08:59:13.105Z,68.5
2018-10-03T09:09:12.860Z,67.8
2018-10-03T09:19:12.611Z,67.7
2018-10-03T09:29:12.491Z,66.1
2018-10-03T09:39:12.085Z,64.7
2018-10-03T09:49:11.364Z,63.2
2018-10-03T09:59:10.675Z,61.5
2018-10-03T10:09:10.414Z,63.4
2018-10-03T10:19:10.083Z,63.3
2018-10-03T10:39:15.248Z,61.5
2018-10-03T10:49:14.751Z,59.8
2018-10-03T10:59:14.318Z,58.7
2018-10-03T11:09:13.952Z,59.6
2018-10-03T11:19:13.650Z,58.7
2018-10-03T11:29:18.643Z,57.7
2018-10-03T11:39:35.404Z,58.9
2018-10-03T11:49:38.113Z,56.6
2018-10-03T11:59:37.700Z,57.3
2018-10-03T12:09:37.725Z,56.2
2018-10-03T12:19:37.143Z,56.7
2018-10-03T12:29:36.629Z,57.4
2018-10-03T12:39:36.248Z,57
2018-10-03T12:49:35.648Z,56.2
2018-10-03T12:59:35.163Z,57.1
2018-10-03T13:09:34.450Z,58.4
2018-10-03T13:19:33.534Z,59.4
2018-10-03T13:29:33.046Z,59
2018-10-03T13:39:32.419Z,59.4
2018-10-03T14:09:36.835Z,57.3
2018-10-03T14:19:36.204Z,58
2018-10-03T14:29:35.649Z,58.9
2018-10-03T14:39:35.143Z,58.2
2018-10-03T14:49:34.826Z,58.8
2018-10-03T14:59:34.151Z,60
2018-10-03T15:09:36.466Z,59.6
2018-10-03T15:19:36.089Z,58.2
2018-10-03T15:29:36.429Z,58.6
2018-10-03T15:39:35.892Z,58.7
2018-10-03T15:49:35.156Z,58.5
2018-10-03T15:59:34.763Z,58.5
2018-10-03T16:09:34.098Z,57.5
2018-10-03T16:19:33.180Z,57.4
2018-10-03T16:29:32.534Z,58.2
2018-10-03T16:39:31.694Z,58.6
2018-10-03T16:49:30.656Z,58.5
2018-10-03T16:59:30.365Z,59
2018-10-03T17:09:29.698Z,59.9
2018-10-03T17:19:29.220Z,60.9
2018-10-03T17:29:28.917Z,61.9
2018-10-03T17:39:30.713Z,63.4
2018-10-03T17:49:30.024Z,64.2
2018-10-03T17:59:29.156Z,65.2
2018-10-03T18:09:28.672Z,65.9
2018-10-03T18:19:28.032Z,66.8
2018-10-03T18:29:27.499Z,66.9
2018-10-03T18:39:27.677Z,67.7
2018-10-03T18:49:26.673Z,68
2018-10-03T18:59:26.243Z,68.5
2018-10-03T19:19:31.197Z,69.7
2018-10-03T19:29:30.922Z,70.2
2018-10-03T19:39:30.238Z,70.9
2018-10-03T19:49:29.365Z,71.3
2018-10-03T19:59:28.842Z,71.5
2018-10-03T20:09:28.462Z,72
2018-10-03T20:19:28.182Z,72.5
2018-10-03T20:29:27.887Z,72.7
2018-10-03T20:49:27.368Z,73.1
2018-10-03T20:59:27.069Z,73.4
2018-10-03T21:09:26.423Z,73.7
2018-10-03T21:19:25.528Z,73.8
2018-10-03T21:29:25.308Z,74.3
2018-10-03T21:39:24.986Z,74.4
2018-10-03T21:49:24.337Z,74.7
2018-10-03T21:59:24.193Z,74.7
2018-10-03T22:09:23.502Z,74.9
2018-10-03T22:19:22.683Z,75.2
2018-10-03T22:29:22.558Z,75.4
2018-10-03T22:39:21.960Z,75.4
2018-10-03T22:49:21.081Z,75.9
2018-10-03T22:59:20.457Z,76.5
2018-10-03T23:09:19.668Z,77.1
2018-10-03T23:19:19.092Z,77.5
2018-10-03T23:29:18.545Z,78.1
2018-10-03T23:39:18.163Z,78.7
2018-10-03T23:49:17.281Z,79
2018-10-03T23:59:17.187Z,78.7
